Dades meteomassalio
Diari Summary for Gener 26, 2017 Units:  Metric    English   Both
« Previous Day
Next Day »
Diari Semanal Mensual Anual Personalitzat
  Maxima: Minima: Mijana:
Temperatura: 9.9 °C -4.1 °C 2.9 °C
Rosada: 4.2 °C -5.2 °C -0.4 °C
Humitat: 92 % 63 % 80 %
Velocitat del vent: 9.7 km/h 0.0 km/h 1 km/h
Racha vent: 9.7 km/h - -
Vent:- - ESE
Pressio: 1021.6 hPa 1016.5 hPa -
Pluja: 0.0 mm    
Historical Graphs
 
 
Tabular Data for Gener 26, 2017
Time Temperature Dew Point Pressure Wind Wind Speed Wind Gust Humidity Rainfall Rate (Hourly) solar Conditions
00:02 -1.6 °C -3.2 °C 1021.2 hPa Calm     89 % 0.0 mm 0.0 W/m2 CLR
00:07 -1.6 °C -3.2 °C 1021.2 hPa Calm     89 % 0.0 mm 0.0 W/m2 CLR
00:12 -1.7 °C -3.3 °C 1021.2 hPa Calm     89 % 0.0 mm 0.0 W/m2 CLR
00:17 -1.7 °C -3.3 °C 1021.2 hPa Calm     89 % 0.0 mm 0.0 W/m2 CLR
00:22 -1.8 °C -3.3 °C 1021.6 hPa Calm     89 % 0.0 mm 0.0 W/m2 CLR
00:27 -1.8 °C -3.4 °C 1021.6 hPa Calm     89 % 0.0 mm 0.0 W/m2 CLR
00:32 -1.8 °C -3.3 °C 1021.6 hPa Calm     89 % 0.0 mm 0.0 W/m2 CLR
00:37 -1.7 °C -3.3 °C 1021.2 hPa Calm     89 % 0.0 mm 0.0 W/m2 CLR
00:42 -1.7 °C -3.3 °C 1021.2 hPa Calm     89 % 0.0 mm 0.0 W/m2 CLR
00:47 -1.8 °C -3.3 °C 1021.2 hPa Calm     89 % 0.0 mm 0.0 W/m2 CLR
00:48 -1.8 °C -3.3 °C 1021.2 hPa Calm     89 % 0.0 mm 0.0 W/m2 CLR
00:53 -1.8 °C -3.4 °C 1021.2 hPa Calm     89 % 0.0 mm 0.0 W/m2 CLR
00:58 -2.0 °C -3.6 °C 1021.2 hPa Calm     89 % 0.0 mm 0.0 W/m2 CLR
01:03 -2.1 °C -3.6 °C 1021.2 hPa Calm     89 % 0.0 mm 0.0 W/m2 CLR
01:08 -2.1 °C -3.7 °C 1021.2 hPa Calm     89 % 0.0 mm 0.0 W/m2 CLR
01:13 -2.2 °C -3.7 °C 1021.2 hPa Calm     89 % 0.0 mm 0.0 W/m2 CLR
01:18 -2.2 °C -3.7 °C 1021.2 hPa Calm     90 % 0.0 mm 0.0 W/m2 CLR
01:23 -2.2 °C -3.7 °C 1021.2 hPa Calm     90 % 0.0 mm 0.0 W/m2 CLR
01:28 -2.2 °C -3.7 °C 1021.2 hPa Calm     90 % 0.0 mm 0.0 W/m2 CLR
01:33 -2.2 °C -3.7 °C 1021.2 hPa Calm     90 % 0.0 mm 0.0 W/m2 CLR
01:38 -2.2 °C -3.7 °C 1020.9 hPa Calm     90 % 0.0 mm 0.0 W/m2 CLR
01:43 -2.2 °C -3.7 °C 1020.9 hPa Calm     90 % 0.0 mm 0.0 W/m2 CLR
01:48 -2.2 °C -3.7 °C 1020.9 hPa Calm     90 % 0.0 mm 0.0 W/m2 CLR
01:53 -2.3 °C -3.7 °C 1020.9 hPa Calm     90 % 0.0 mm 0.0 W/m2 CLR
01:58 -2.3 °C -3.8 °C 1020.9 hPa Calm     90 % 0.0 mm 0.0 W/m2 CLR
02:03 -2.4 °C -3.8 °C 1020.9 hPa Calm     90 % 0.0 mm 0.0 W/m2 CLR
02:08 -2.4 °C -3.8 °C 1020.9 hPa Calm     90 % 0.0 mm 0.0 W/m2 CLR
02:13 -2.4 °C -3.8 °C 1020.9 hPa Calm     90 % 0.0 mm 0.0 W/m2 CLR
02:18 -2.4 °C -3.7 °C 1020.9 hPa Calm     91 % 0.0 mm 0.0 W/m2 CLR
02:23 -2.4 °C -3.7 °C 1020.9 hPa Calm     91 % 0.0 mm 0.0 W/m2 CLR
02:28 -2.4 °C -3.8 °C 1020.9 hPa Calm     90 % 0.0 mm 0.0 W/m2 CLR
02:33 -2.4 °C -3.8 °C 1020.9 hPa Calm     90 % 0.0 mm 0.0 W/m2 CLR
02:38 -2.5 °C -3.9 °C 1020.5 hPa Calm     90 % 0.0 mm 0.0 W/m2 CLR
02:43 -2.6 °C -3.9 °C 1020.9 hPa Calm     90 % 0.0 mm 0.0 W/m2 CLR
02:48 -2.6 °C -3.8 °C 1020.9 hPa Calm     91 % 0.0 mm 0.0 W/m2 CLR
02:53 -2.6 °C -3.9 °C 1020.9 hPa Calm     90 % 0.0 mm 0.0 W/m2 CLR
02:58 -2.5 °C -3.9 °C 1020.9 hPa Calm     90 % 0.0 mm 0.0 W/m2 CLR
03:03 -2.5 °C -3.9 °C 1020.9 hPa Calm     90 % 0.0 mm 0.0 W/m2 CLR
03:08 -2.5 °C -3.9 °C 1020.9 hPa Calm     90 % 0.0 mm 0.0 W/m2 CLR
03:13 -2.5 °C -3.9 °C 1020.9 hPa Calm     90 % 0.0 mm 0.0 W/m2 CLR
03:18 -2.6 °C -3.9 °C 1020.9 hPa Calm     90 % 0.0 mm 0.0 W/m2 CLR
03:23 -2.6 °C -4.0 °C 1020.5 hPa Calm     90 % 0.0 mm 0.0 W/m2 CLR
03:28 -2.7 °C -4.1 °C 1020.5 hPa Calm     90 % 0.0 mm 0.0 W/m2 CLR
03:33 -2.7 °C -4.1 °C 1020.5 hPa Calm     90 % 0.0 mm 0.0 W/m2 CLR
03:38 -2.7 °C -4.0 °C 1020.5 hPa Calm     91 % 0.0 mm 0.0 W/m2 CLR
03:43 -2.7 °C -4.0 °C 1020.9 hPa Calm     91 % 0.0 mm 0.0 W/m2 CLR
03:48 -2.7 °C -3.9 °C 1020.5 hPa Calm     91 % 0.0 mm 0.0 W/m2 CLR
03:53 -2.7 °C -3.9 °C 1020.5 hPa Calm     91 % 0.0 mm 0.0 W/m2 CLR
03:59 -2.7 °C -3.9 °C 1020.5 hPa Calm     91 % 0.0 mm 0.0 W/m2 CLR
04:04 -2.7 °C -4.0 °C 1020.5 hPa Calm     91 % 0.0 mm 0.0 W/m2 CLR
04:09 -2.8 °C -4.2 °C 1020.5 hPa Calm     90 % 0.0 mm 0.0 W/m2 CLR
04:14 -2.7 °C -4.0 °C 1020.5 hPa Calm     91 % 0.0 mm 0.0 W/m2 CLR
04:19 -2.7 °C -4.0 °C 1020.5 hPa Calm     91 % 0.0 mm 0.0 W/m2 CLR
04:24 -2.7 °C -4.0 °C 1020.5 hPa Calm     91 % 0.0 mm 0.0 W/m2 CLR
04:29 -2.7 °C -4.0 °C 1020.2 hPa Calm     91 % 0.0 mm 0.0 W/m2 CLR
04:34 -2.8 °C -4.1 °C 1020.5 hPa Calm     91 % 0.0 mm 0.0 W/m2 CLR
04:39 -2.8 °C -4.1 °C 1020.5 hPa Calm     91 % 0.0 mm 0.0 W/m2 CLR
04:44 -2.8 °C -4.1 °C 1020.5 hPa Calm     91 % 0.0 mm 0.0 W/m2 CLR
04:49 -2.8 °C -4.1 °C 1020.2 hPa Calm     91 % 0.0 mm 0.0 W/m2 CLR
04:54 -2.8 °C -4.1 °C 1020.5 hPa Calm     91 % 0.0 mm 0.0 W/m2 CLR
04:59 -2.8 °C -4.1 °C 1020.5 hPa Calm     91 % 0.0 mm 0.0 W/m2 CLR
05:04 -2.8 °C -4.1 °C 1020.5 hPa Calm     91 % 0.0 mm 0.0 W/m2 CLR
05:09 -2.8 °C -4.1 °C 1020.5 hPa Calm     91 % 0.0 mm 0.0 W/m2 CLR
05:14 -2.8 °C -4.1 °C 1020.5 hPa Calm     91 % 0.0 mm 0.0 W/m2 CLR
05:19 -2.8 °C -4.1 °C 1020.5 hPa Calm     91 % 0.0 mm 0.0 W/m2 CLR
05:24 -2.9 °C -4.2 °C 1020.5 hPa Calm     91 % 0.0 mm 0.0 W/m2 CLR
05:29 -2.9 °C -4.2 °C 1020.5 hPa Calm     91 % 0.0 mm 0.0 W/m2 CLR
05:34 -3.0 °C -4.3 °C 1020.5 hPa Calm     91 % 0.0 mm 0.0 W/m2 CLR
05:39 -3.0 °C -4.3 °C 1020.5 hPa Calm     91 % 0.0 mm 0.0 W/m2 CLR
05:44 -3.1 °C -4.3 °C 1020.5 hPa Calm     91 % 0.0 mm 0.0 W/m2 CLR
05:49 -3.2 °C -4.4 °C 1020.5 hPa Calm     91 % 0.0 mm 0.0 W/m2 CLR
05:54 -3.1 °C -4.4 °C 1020.5 hPa Calm     91 % 0.0 mm 0.0 W/m2 CLR
05:59 -3.1 °C -4.4 °C 1020.5 hPa Calm     91 % 0.0 mm 0.0 W/m2 CLR
06:04 -3.2 °C -4.4 °C 1020.5 hPa Calm     91 % 0.0 mm 0.0 W/m2 CLR
06:09 -3.1 °C -4.4 °C 1020.5 hPa Calm     91 % 0.0 mm 0.0 W/m2 CLR
06:14 -3.1 °C -4.4 °C 1020.5 hPa Calm     91 % 0.0 mm 0.0 W/m2 CLR
06:19 -3.1 °C -4.4 °C 1020.5 hPa Calm     91 % 0.0 mm 0.0 W/m2 CLR
06:24 -3.2 °C -4.5 °C 1020.5 hPa Calm     91 % 0.0 mm 0.0 W/m2 CLR
06:29 -3.3 °C -4.6 °C 1020.5 hPa Calm     91 % 0.0 mm 0.0 W/m2 CLR
06:34 -3.4 °C -4.7 °C 1020.5 hPa Calm     91 % 0.0 mm 0.0 W/m2 CLR
06:39 -3.4 °C -4.7 °C 1020.5 hPa Calm     91 % 0.0 mm 0.0 W/m2 CLR
06:44 -3.4 °C -4.5 °C 1020.5 hPa Calm     92 % 0.0 mm 0.0 W/m2 CLR
06:49 -3.4 °C -4.5 °C 1020.5 hPa Calm     92 % 0.0 mm 0.0 W/m2 CLR
06:54 -3.4 °C -4.5 °C 1020.5 hPa Calm     92 % 0.0 mm 0.0 W/m2 CLR
06:59 -3.4 °C -4.6 °C 1020.5 hPa Calm     92 % 0.0 mm 0.0 W/m2 CLR
07:04 -3.5 °C -4.6 °C 1020.2 hPa Calm     92 % 0.0 mm 0.0 W/m2 CLR
07:09 -3.6 °C -4.7 °C 1020.5 hPa Calm     92 % 0.0 mm 0.0 W/m2 CLR
07:14 -3.6 °C -4.7 °C 1020.5 hPa Calm     92 % 0.0 mm 0.0 W/m2 CLR
07:19 -3.6 °C -4.7 °C 1020.5 hPa Calm     92 % 0.0 mm 0.0 W/m2 CLR
07:25 -3.7 °C -4.8 °C 1020.5 hPa Calm     92 % 0.0 mm 0.0 W/m2 CLR
07:30 -3.8 °C -4.9 °C 1020.5 hPa Calm     92 % 0.0 mm 0.0 W/m2 CLR
07:35 -3.8 °C -4.9 °C 1020.5 hPa Calm     92 % 0.0 mm 0.0 W/m2 CLR
07:40 -3.9 °C -5.0 °C 1020.5 hPa Calm     92 % 0.0 mm 0.0 W/m2 CLR
07:45 -3.9 °C -5.1 °C 1020.5 hPa Calm     92 % 0.0 mm 0.0 W/m2 CLR
07:50 -3.9 °C -5.0 °C 1020.5 hPa Calm     92 % 0.0 mm 0.0 W/m2 CLR
07:55 -3.9 °C -5.0 °C 1020.9 hPa Calm     92 % 0.0 mm 0.0 W/m2 CLR
08:00 -3.9 °C -5.1 °C 1020.9 hPa Calm     92 % 0.0 mm 0.0 W/m2 CLR
08:05 -3.9 °C -5.1 °C 1020.9 hPa Calm     92 % 0.0 mm 0.0 W/m2 CLR
08:10 -4.0 °C -5.1 °C 1020.9 hPa Calm     92 % 0.0 mm 0.0 W/m2 OVC
08:15 -4.0 °C -5.1 °C 1020.9 hPa Calm     92 % 0.0 mm 0.0 W/m2 OVC
08:20 -4.1 °C -5.2 °C 1020.9 hPa Calm     92 % 0.0 mm 5.0 W/m2 OVC
08:25 -4.0 °C -5.1 °C 1020.9 hPa Calm     92 % 0.0 mm 9.0 W/m2 BKN
08:30 -3.9 °C -5.1 °C 1020.9 hPa Calm     92 % 0.0 mm 9.0 W/m2 BKN
08:35 -3.8 °C -4.9 °C 1020.9 hPa Calm     92 % 0.0 mm 16.0 W/m2 BKN
08:40 -3.8 °C -4.9 °C 1020.9 hPa Calm     92 % 0.0 mm 19.0 W/m2 BKN
08:45 -3.7 °C -4.8 °C 1020.9 hPa Calm     92 % 0.0 mm 21.0 W/m2 BKN
08:50 -3.6 °C -4.7 °C 1020.9 hPa Calm     92 % 0.0 mm 26.0 W/m2 BKN
08:55 -3.4 °C -4.5 °C 1020.9 hPa Calm     92 % 0.0 mm 32.0 W/m2 BKN
09:00 -3.2 °C -4.3 °C 1020.9 hPa Calm     92 % 0.0 mm 37.0 W/m2 BKN
09:05 -3.1 °C -4.2 °C 1020.9 hPa Calm     92 % 0.0 mm 51.0 W/m2 SCT
09:10 -2.9 °C -4.0 °C 1020.9 hPa Calm     92 % 0.0 mm 69.0 W/m2 FEW
09:15 -2.7 °C -3.8 °C 1020.9 hPa Calm     92 % 0.0 mm 81.0 W/m2 FEW
09:20 -2.6 °C -3.7 °C 1020.9 hPa Calm     92 % 0.0 mm 97.0 W/m2 FEW
09:25 -2.4 °C -3.7 °C 1020.9 hPa Calm     91 % 0.0 mm 105.0 W/m2 CLR
09:30 -2.1 °C -3.2 °C 1020.9 hPa Calm     92 % 0.0 mm 120.0 W/m2 CLR
09:35 -1.8 °C -3.1 °C 1020.9 hPa Calm     91 % 0.0 mm 158.0 W/m2 CLR
09:41 -1.6 °C -3.1 °C 1020.9 hPa Calm     90 % 0.0 mm 151.0 W/m2 CLR
09:46 -1.4 °C -2.8 °C 1020.9 hPa Calm     90 % 0.0 mm 148.0 W/m2 CLR
09:51 -1.1 °C -2.6 °C 1020.9 hPa Calm     90 % 0.0 mm 114.0 W/m2 CLR
09:56 -0.7 °C -2.2 °C 1020.9 hPa Calm     90 % 0.0 mm 137.0 W/m2 CLR
10:01 -0.5 °C -2.1 °C 1020.9 hPa Calm     89 % 0.0 mm 232.0 W/m2 CLR
10:06 -0.3 °C -1.9 °C 1020.9 hPa Calm     89 % 0.0 mm 246.0 W/m2 CLR
10:11 0.0 °C -1.8 °C 1020.9 hPa Calm     88 % 0.0 mm 258.0 W/m2 CLR
10:16 0.4 °C -1.4 °C 1020.9 hPa Calm     88 % 0.0 mm 271.0 W/m2 CLR
10:21 0.7 °C -1.4 °C 1020.5 hPa Calm     86 % 0.0 mm 281.0 W/m2 CLR
10:26 0.9 °C -1.2 °C 1020.5 hPa Calm     86 % 0.0 mm 290.0 W/m2 CLR
10:31 1.2 °C -1.1 °C 1020.5 hPa Calm     85 % 0.0 mm 301.0 W/m2 CLR
10:36 1.3 °C -1.1 °C 1020.5 hPa Calm     84 % 0.0 mm 309.0 W/m2 CLR
10:41 1.4 °C -1.0 °C 1020.5 hPa Calm     84 % 0.0 mm 320.0 W/m2 CLR
10:46 1.6 °C -0.8 °C 1020.5 hPa Calm     84 % 0.0 mm 330.0 W/m2 CLR
10:51 1.7 °C -0.8 °C 1020.5 hPa Calm     83 % 0.0 mm 339.0 W/m2 CLR
10:56 1.9 °C -0.8 °C 1020.5 hPa Calm     82 % 0.0 mm 348.0 W/m2 CLR
11:01 2.6 °C -0.2 °C 1020.5 hPa Calm     82 % 0.0 mm 359.0 W/m2 CLR
11:06 2.8 °C -0.3 °C 1020.5 hPa Calm     80 % 0.0 mm 364.0 W/m2 CLR
11:11 3.3 °C 0.1 °C 1020.5 hPa Calm     79 % 0.0 mm 373.0 W/m2 CLR
11:16 3.7 °C 0.0 °C 1020.5 hPa Calm     77 % 0.0 mm 383.0 W/m2 CLR
11:21 3.9 °C 0.1 °C 1020.5 hPa Calm     76 % 0.0 mm 388.0 W/m2 CLR
11:26 4.3 °C 0.1 °C 1020.5 hPa Calm     74 % 0.0 mm 396.0 W/m2 CLR
11:31 4.5 °C -0.1 °C 1020.5 hPa Calm     72 % 0.0 mm 404.0 W/m2 CLR
11:36 4.7 °C 0.1 °C 1020.5 hPa Calm     72 % 0.0 mm 413.0 W/m2 CLR
11:41 4.8 °C -0.2 °C 1020.2 hPa Calm     70 % 0.0 mm 420.0 W/m2 CLR
11:46 4.9 °C -0.1 °C 1020.2 hPa Calm     70 % 0.0 mm 425.0 W/m2 CLR
11:51 5.1 °C -0.2 °C 1020.2 hPa Calm     69 % 0.0 mm 432.0 W/m2 CLR
11:56 5.1 °C -0.2 °C 1019.9 hPa Calm     69 % 0.0 mm 439.0 W/m2 CLR
12:01 5.1 °C 0.1 °C 1019.9 hPa Calm     70 % 0.0 mm 443.0 W/m2 CLR
12:06 5.1 °C -0.1 °C 1019.9 hPa Calm     69 % 0.0 mm 450.0 W/m2 CLR
12:11 5.3 °C 0.3 °C 1019.9 hPa Calm     70 % 0.0 mm 408.0 W/m2 CLR
12:16 5.5 °C 0.1 °C 1019.9 hPa Calm     68 % 0.0 mm 461.0 W/m2 CLR
12:21 5.6 °C 0.3 °C 1019.9 hPa Calm     69 % 0.0 mm 468.0 W/m2 CLR
12:26 5.7 °C 0.2 °C 1019.5 hPa Calm     68 % 0.0 mm 473.0 W/m2 CLR
12:31 5.7 °C 0.4 °C 1019.5 hPa Calm     69 % 0.0 mm 475.0 W/m2 CLR
12:36 5.8 °C 0.8 °C 1019.5 hPa Calm     70 % 0.0 mm 462.0 W/m2 CLR
12:41 5.9 °C 0.6 °C 1019.5 hPa Calm     69 % 0.0 mm 471.0 W/m2 CLR
12:46 6.0 °C 0.7 °C 1019.5 hPa Calm     69 % 0.0 mm 482.0 W/m2 CLR
12:51 6.1 °C 0.8 °C 1019.2 hPa Calm     69 % 0.0 mm 468.0 W/m2 CLR
12:56 6.2 °C 0.9 °C 1019.2 hPa Calm     69 % 0.0 mm 473.0 W/m2 CLR
13:01 6.2 °C 0.9 °C 1019.2 hPa Calm     69 % 0.0 mm 489.0 W/m2 CLR
13:06 6.3 °C 1.1 °C 1018.8 hPa ENE 3.7 km/h 3.7 km/h 69 % 0.0 mm 489.0 W/m2 CLR
13:11 6.3 °C 1.3 °C 1018.8 hPa NE 1.9 km/h 1.9 km/h 70 % 0.0 mm 496.0 W/m2 CLR
13:16 6.4 °C 1.2 °C 1018.5 hPa Calm     69 % 0.0 mm 496.0 W/m2 CLR
13:17 6.4 °C 1.2 °C 1018.5 hPa NNE 5.6 km/h 5.6 km/h 69 % 0.0 mm 494.0 W/m2 CLR
13:22 6.6 °C 1.4 °C 1018.5 hPa Calm     70 % 0.0 mm 403.0 W/m2 CLR
13:27 6.6 °C 1.7 °C 1018.5 hPa Calm     71 % 0.0 mm 490.0 W/m2 CLR
13:32 6.7 °C 1.6 °C 1018.5 hPa Calm     70 % 0.0 mm 490.0 W/m2 CLR
13:37 6.9 °C 2.2 °C 1018.5 hPa NE 1.9 km/h   72 % 0.0 mm 469.0 W/m2 CLR
13:42 7.2 °C 2.3 °C 1018.2 hPa Calm     71 % 0.0 mm 446.0 W/m2 CLR
13:47 7.3 °C 2.4 °C 1018.2 hPa Calm     71 % 0.0 mm 455.0 W/m2 CLR
13:53 7.3 °C 2.6 °C 1017.8 hPa Calm     72 % 0.0 mm 468.0 W/m2 CLR
13:58 7.4 °C 2.4 °C 1017.8 hPa NE 5.6 km/h 5.6 km/h 71 % 0.0 mm 459.0 W/m2 CLR
14:03 7.6 °C 2.7 °C 1017.8 hPa NE 1.9 km/h 1.9 km/h 71 % 0.0 mm 450.0 W/m2 CLR
14:08 7.8 °C 3.1 °C 1017.8 hPa Calm     72 % 0.0 mm 469.0 W/m2 CLR
14:13 8.1 °C 3.2 °C 1017.8 hPa Calm     71 % 0.0 mm 482.0 W/m2 CLR
14:18 8.4 °C 3.4 °C 1017.5 hPa Calm     71 % 0.0 mm 445.0 W/m2 CLR
14:23 8.7 °C 3.8 °C 1017.5 hPa Calm   0.5 km/h 71 % 0.0 mm 454.0 W/m2 CLR
14:28 8.9 °C 3.5 °C 1017.5 hPa Calm   0.3 km/h 69 % 0.0 mm 443.0 W/m2 CLR
14:33 9.1 °C 3.5 °C 1017.5 hPa East 3.7 km/h   68 % 0.0 mm 441.0 W/m2 CLR
14:38 9.3 °C 3.9 °C 1017.5 hPa Calm   0.5 km/h 69 % 0.0 mm 415.0 W/m2 CLR
14:43 9.3 °C 3.7 °C 1017.2 hPa East 9.7 km/h 9.7 km/h 68 % 0.0 mm 422.0 W/m2 CLR
14:48 9.2 °C 3.8 °C 1017.2 hPa East 4.8 km/h 4.8 km/h 69 % 0.0 mm 371.0 W/m2 CLR
14:53 9.3 °C 3.9 °C 1017.2 hPa Calm     69 % 0.0 mm 387.0 W/m2 CLR
14:58 9.6 °C 4.2 °C 1017.2 hPa East 3.7 km/h   69 % 0.0 mm 378.0 W/m2 CLR
15:03 9.7 °C 3.6 °C 1017.2 hPa East 5.6 km/h 5.6 km/h 66 % 0.0 mm 399.0 W/m2 CLR
15:08 9.6 °C 3.8 °C 1017.2 hPa East 6.4 km/h 6.4 km/h 67 % 0.0 mm 380.0 W/m2 CLR
15:13 9.6 °C 3.6 °C 1016.8 hPa East 3.7 km/h 3.7 km/h 66 % 0.0 mm 378.0 W/m2 CLR
15:18 9.7 °C 3.9 °C 1016.8 hPa East 5.6 km/h 5.6 km/h 67 % 0.0 mm 371.0 W/m2 CLR
15:23 9.6 °C 3.3 °C 1016.8 hPa East 9.3 km/h 9.3 km/h 65 % 0.0 mm 345.0 W/m2 CLR
15:28 9.6 °C 3.6 °C 1016.8 hPa East 9.7 km/h 9.7 km/h 66 % 0.0 mm 302.0 W/m2 CLR
15:33 9.6 °C 3.5 °C 1016.5 hPa East 3.7 km/h 3.7 km/h 66 % 0.0 mm 258.0 W/m2 CLR
15:38 9.6 °C 3.5 °C 1016.8 hPa East 7.4 km/h 7.4 km/h 66 % 0.0 mm 253.0 W/m2 CLR
15:43 9.5 °C 3.4 °C 1016.8 hPa East 4.8 km/h 4.8 km/h 66 % 0.0 mm 262.0 W/m2 CLR
15:48 9.6 °C 3.7 °C 1016.8 hPa Calm     67 % 0.0 mm 227.0 W/m2 CLR
15:53 9.7 °C 3.9 °C 1016.8 hPa ENE 3.7 km/h 3.7 km/h 67 % 0.0 mm 204.0 W/m2 CLR
15:58 9.8 °C 3.7 °C 1016.8 hPa Calm     66 % 0.0 mm 214.0 W/m2 CLR
16:03 9.8 °C 4.0 °C 1016.5 hPa East 8.0 km/h 8.0 km/h 67 % 0.0 mm 230.0 W/m2 CLR
16:04 9.8 °C 3.8 °C 1016.5 hPa East 7.4 km/h 7.4 km/h 66 % 0.0 mm 244.0 W/m2 CLR
16:09 9.8 °C 3.5 °C 1016.8 hPa East 5.6 km/h 5.6 km/h 65 % 0.0 mm 264.0 W/m2 CLR
16:14 9.9 °C 3.4 °C 1016.8 hPa East 3.7 km/h 3.7 km/h 64 % 0.0 mm 251.0 W/m2 CLR
16:19 9.9 °C 3.6 °C 1016.8 hPa Calm     65 % 0.0 mm 241.0 W/m2 CLR
16:20 9.9 °C 3.6 °C 1016.8 hPa East 6.4 km/h 6.4 km/h 65 % 0.0 mm 244.0 W/m2 CLR
16:25 9.9 °C 3.4 °C 1016.8 hPa ESE 5.6 km/h 5.6 km/h 64 % 0.0 mm 220.0 W/m2 CLR
16:30 9.8 °C 3.1 °C 1016.8 hPa ESE 7.4 km/h 7.4 km/h 63 % 0.0 mm 206.0 W/m2 CLR
16:35 9.6 °C 2.9 °C 1016.8 hPa Calm     63 % 0.0 mm 192.0 W/m2 CLR
16:40 9.7 °C 2.9 °C 1016.8 hPa East 3.7 km/h 3.7 km/h 63 % 0.0 mm 216.0 W/m2 CLR
16:45 9.7 °C 3.4 °C 1016.8 hPa Calm     65 % 0.0 mm 207.0 W/m2 CLR
16:50 9.8 °C 3.3 °C 1016.8 hPa ESE 1.9 km/h 1.9 km/h 64 % 0.0 mm 158.0 W/m2 CLR
16:55 9.7 °C 3.4 °C 1016.8 hPa ESE 7.4 km/h 7.4 km/h 65 % 0.0 mm 86.0 W/m2 CLR
17:00 9.4 °C 3.4 °C 1016.8 hPa ESE 5.6 km/h 5.6 km/h 66 % 0.0 mm 72.0 W/m2 CLR
17:05 9.3 °C 3.3 °C 1017.2 hPa ESE 3.7 km/h 3.7 km/h 66 % 0.0 mm 65.0 W/m2 FEW
17:10 9.3 °C 3.4 °C 1017.2 hPa ESE 3.7 km/h   67 % 0.0 mm 54.0 W/m2 SCT
17:15 9.1 °C 3.3 °C 1017.2 hPa East 5.6 km/h 5.6 km/h 67 % 0.0 mm 46.0 W/m2 SCT
17:20 8.9 °C 3.2 °C 1017.2 hPa ESE 7.4 km/h 7.4 km/h 67 % 0.0 mm 40.0 W/m2 BKN
17:25 8.8 °C 3.1 °C 1017.2 hPa ESE 5.6 km/h 5.6 km/h 67 % 0.0 mm 35.0 W/m2 BKN
17:30 8.7 °C 3.2 °C 1017.2 hPa East 3.7 km/h 3.7 km/h 68 % 0.0 mm 32.0 W/m2 BKN
17:35 8.6 °C 3.0 °C 1017.5 hPa East 1.9 km/h 1.9 km/h 68 % 0.0 mm 26.0 W/m2 BKN
17:40 8.6 °C 3.0 °C 1017.5 hPa ESE 7.4 km/h 7.4 km/h 68 % 0.0 mm 23.0 W/m2 BKN
17:45 8.6 °C 2.6 °C 1017.5 hPa SE 6.4 km/h 6.4 km/h 66 % 0.0 mm 18.0 W/m2 BKN
17:50 8.6 °C 2.6 °C 1017.5 hPa SE 5.6 km/h 5.6 km/h 66 % 0.0 mm 12.0 W/m2 BKN
17:55 8.5 °C 2.5 °C 1017.5 hPa SE 3.7 km/h 3.7 km/h 66 % 0.0 mm 7.0 W/m2 BKN
18:00 8.3 °C 2.6 °C 1017.5 hPa Calm     67 % 0.0 mm 5.0 W/m2 OVC
18:05 8.2 °C 2.4 °C 1017.5 hPa SE 5.6 km/h 5.6 km/h 67 % 0.0 mm 0.0 W/m2 OVC
18:10 8.1 °C 2.5 °C 1017.5 hPa Calm     68 % 0.0 mm 0.0 W/m2 OVC
18:15 7.9 °C 2.4 °C 1017.5 hPa SSE 5.6 km/h 5.6 km/h 68 % 0.0 mm 0.0 W/m2 OVC
18:20 7.9 °C 2.3 °C 1017.5 hPa SE 7.4 km/h 7.4 km/h 68 % 0.0 mm 0.0 W/m2 CLR
18:25 7.8 °C 2.5 °C 1017.5 hPa SE 7.4 km/h 7.4 km/h 69 % 0.0 mm 0.0 W/m2 CLR
18:30 7.8 °C 2.4 °C 1017.5 hPa SE 7.4 km/h 7.4 km/h 69 % 0.0 mm 0.0 W/m2 CLR
18:35 7.8 °C 2.5 °C 1017.5 hPa SSE 7.4 km/h 7.4 km/h 69 % 0.0 mm 0.0 W/m2 CLR
18:40 7.8 °C 2.7 °C 1017.5 hPa SSE 3.7 km/h 3.7 km/h 70 % 0.0 mm 0.0 W/m2 CLR
18:45 7.8 °C 2.7 °C 1017.5 hPa SSE 5.6 km/h 5.6 km/h 70 % 0.0 mm 0.0 W/m2 CLR
18:50 7.7 °C 2.7 °C 1017.5 hPa Calm     71 % 0.0 mm 0.0 W/m2 CLR
18:55 7.7 °C 2.7 °C 1017.8 hPa Calm     71 % 0.0 mm 0.0 W/m2 CLR
19:00 7.6 °C 2.9 °C 1017.8 hPa Calm     72 % 0.0 mm 0.0 W/m2 CLR
19:05 7.6 °C 2.9 °C 1017.8 hPa Calm   0.6 km/h 72 % 0.0 mm 0.0 W/m2 CLR
19:10 7.6 °C 2.8 °C 1017.8 hPa South 3.7 km/h   72 % 0.0 mm 0.0 W/m2 CLR
19:15 7.6 °C 2.8 °C 1017.8 hPa Calm     72 % 0.0 mm 0.0 W/m2 CLR
19:20 7.6 °C 2.8 °C 1017.8 hPa Calm     72 % 0.0 mm 0.0 W/m2 CLR
19:25 7.6 °C 2.8 °C 1017.8 hPa SSE 1.6 km/h 1.6 km/h 72 % 0.0 mm 0.0 W/m2 CLR
19:30 7.6 °C 2.7 °C 1017.8 hPa Calm     71 % 0.0 mm 0.0 W/m2 CLR
19:36 7.6 °C 2.9 °C 1017.8 hPa Calm     72 % 0.0 mm 0.0 W/m2 CLR
19:41 7.6 °C 2.7 °C 1017.8 hPa Calm     71 % 0.0 mm 0.0 W/m2 CLR
19:46 7.6 °C 2.7 °C 1017.8 hPa Calm     71 % 0.0 mm 0.0 W/m2 CLR
19:51 7.6 °C 2.7 °C 1017.8 hPa SSE 7.4 km/h 7.4 km/h 71 % 0.0 mm 0.0 W/m2 CLR
19:56 7.7 °C 2.6 °C 1017.8 hPa SE 5.6 km/h 5.6 km/h 70 % 0.0 mm 0.0 W/m2 CLR
20:01 7.7 °C 2.6 °C 1017.8 hPa SE 3.7 km/h   70 % 0.0 mm 0.0 W/m2 CLR
20:06 7.6 °C 2.4 °C 1017.8 hPa Calm     70 % 0.0 mm 0.0 W/m2 CLR
20:11 7.4 °C 2.4 °C 1017.8 hPa Calm     71 % 0.0 mm 0.0 W/m2 CLR
20:16 7.3 °C 2.4 °C 1017.8 hPa Calm     71 % 0.0 mm 0.0 W/m2 CLR
20:21 7.3 °C 2.4 °C 1017.8 hPa Calm     71 % 0.0 mm 0.0 W/m2 CLR
20:26 7.3 °C 2.6 °C 1017.8 hPa Calm     72 % 0.0 mm 0.0 W/m2 CLR
20:31 7.4 °C 2.4 °C 1017.8 hPa Calm     71 % 0.0 mm 0.0 W/m2 CLR
20:36 7.4 °C 2.4 °C 1017.8 hPa Calm     71 % 0.0 mm 0.0 W/m2 CLR
20:41 7.3 °C 2.4 °C 1017.8 hPa Calm     71 % 0.0 mm 0.0 W/m2 CLR
20:46 7.1 °C 2.2 °C 1017.8 hPa Calm     71 % 0.0 mm 0.0 W/m2 CLR
20:51 7.1 °C 2.2 °C 1017.8 hPa Calm     71 % 0.0 mm 0.0 W/m2 CLR
20:56 7.1 °C 2.2 °C 1017.5 hPa Calm     71 % 0.0 mm 0.0 W/m2 CLR
21:01 7.1 °C 2.2 °C 1017.8 hPa Calm     71 % 0.0 mm 0.0 W/m2 CLR
21:06 7.1 °C 2.4 °C 1017.8 hPa Calm     72 % 0.0 mm 0.0 W/m2 CLR
21:11 7.1 °C 2.4 °C 1017.8 hPa Calm     72 % 0.0 mm 0.0 W/m2 CLR
21:16 6.9 °C 2.4 °C 1017.8 hPa Calm     73 % 0.0 mm 0.0 W/m2 CLR
21:21 6.8 °C 2.5 °C 1017.8 hPa Calm     74 % 0.0 mm 0.0 W/m2 CLR
21:26 6.8 °C 2.3 °C 1017.5 hPa Calm     73 % 0.0 mm 0.0 W/m2 CLR
21:31 6.9 °C 2.4 °C 1017.5 hPa Calm     73 % 0.0 mm 0.0 W/m2 CLR
21:36 6.9 °C 2.6 °C 1017.5 hPa Calm     74 % 0.0 mm 0.0 W/m2 CLR
21:41 6.8 °C 2.5 °C 1017.5 hPa Calm     74 % 0.0 mm 0.0 W/m2 CLR
21:46 6.8 °C 2.7 °C 1017.5 hPa Calm     75 % 0.0 mm 0.0 W/m2 CLR
21:51 6.7 °C 2.6 °C 1017.5 hPa Calm     75 % 0.0 mm 0.0 W/m2 CLR
21:56 6.6 °C 2.7 °C 1017.8 hPa Calm     76 % 0.0 mm 0.0 W/m2 CLR
22:01 6.5 °C 2.6 °C 1017.5 hPa Calm     76 % 0.0 mm 0.0 W/m2 CLR
22:06 6.4 °C 2.7 °C 1017.5 hPa Calm     77 % 0.0 mm 0.0 W/m2 CLR
22:11 6.3 °C 2.8 °C 1017.5 hPa Calm     78 % 0.0 mm 0.0 W/m2 CLR
22:16 6.3 °C 2.7 °C 1017.5 hPa Calm     78 % 0.0 mm 0.0 W/m2 CLR
22:21 6.3 °C 2.9 °C 1017.5 hPa Calm     79 % 0.0 mm 0.0 W/m2 CLR
22:26 6.3 °C 3.1 °C 1017.2 hPa Calm     80 % 0.0 mm 0.0 W/m2 CLR
22:31 6.3 °C 3.1 °C 1017.2 hPa Calm     80 % 0.0 mm 0.0 W/m2 CLR
22:36 6.4 °C 3.2 °C 1017.2 hPa Calm     80 % 0.0 mm 0.0 W/m2 CLR
22:41 6.4 °C 3.2 °C 1017.5 hPa Calm     80 % 0.0 mm 0.0 W/m2 CLR
22:46 6.4 °C 3.0 °C 1017.2 hPa Calm     79 % 0.0 mm 0.0 W/m2 CLR
22:51 6.4 °C 3.2 °C 1017.5 hPa Calm     80 % 0.0 mm 0.0 W/m2 CLR
22:56 6.3 °C 3.1 °C 1017.5 hPa Calm     80 % 0.0 mm 0.0 W/m2 CLR
23:01 6.3 °C 3.3 °C 1017.2 hPa Calm     81 % 0.0 mm 0.0 W/m2 CLR
23:06 6.4 °C 3.4 °C 1017.2 hPa Calm     81 % 0.0 mm 0.0 W/m2 CLR
23:11 6.4 °C 3.2 °C 1017.2 hPa Calm     80 % 0.0 mm 0.0 W/m2 CLR
23:16 6.3 °C 3.3 °C 1017.2 hPa ESE 5.6 km/h 5.6 km/h 81 % 0.0 mm 0.0 W/m2 CLR
23:22 6.5 °C 3.5 °C 1017.2 hPa Calm     81 % 0.0 mm 0.0 W/m2 CLR
23:27 6.6 °C 3.3 °C 1017.2 hPa Calm     80 % 0.0 mm 0.0 W/m2 CLR
23:32 6.6 °C 3.3 °C 1017.2 hPa Calm     80 % 0.0 mm 0.0 W/m2 CLR
23:37 6.5 °C 3.3 °C 1017.2 hPa Calm     80 % 0.0 mm 0.0 W/m2 CLR
23:42 6.5 °C 3.5 °C 1017.2 hPa Calm     81 % 0.0 mm 0.0 W/m2 CLR
23:47 6.4 °C 3.4 °C 1017.2 hPa Calm     81 % 0.0 mm 0.0 W/m2 CLR
23:52 6.4 °C 3.4 °C 1017.2 hPa Calm     81 % 0.0 mm 0.0 W/m2 CLR
23:57 6.5 °C 3.5 °C 1017.2 hPa Calm     81 % 0.0 mm 0.0 W/m2 CLR
Lo Temps de Massalio
Compliments of Weather Underground - 1.25 mb